sensor_id;sensor_type;location;lat;lon;timestamp;P1;durP1;ratioP1;P2;durP2;ratioP2
80136;SDS011;69466;55.948;37.484;2023-09-18T00:01:04;12.75;;;6.20;;
80136;SDS011;69466;55.948;37.484;2023-09-18T00:03:31;10.27;;;6.47;;
80136;SDS011;69466;55.948;37.484;2023-09-18T00:05:57;10.88;;;6.53;;
80136;SDS011;69466;55.948;37.484;2023-09-18T00:08:24;13.30;;;7.80;;
80136;SDS011;69466;55.948;37.484;2023-09-18T00:10:54;11.38;;;6.93;;
80136;SDS011;69466;55.948;37.484;2023-09-18T00:13:21;11.55;;;6.88;;
80136;SDS011;69466;55.948;37.484;2023-09-18T00:15:48;11.27;;;7.10;;
80136;SDS011;69466;55.948;37.484;2023-09-18T00:18:15;9.82;;;6.43;;
80136;SDS011;69466;55.948;37.484;2023-09-18T00:20:44;9.65;;;6.90;;
80136;SDS011;69466;55.948;37.484;2023-09-18T00:23:12;11.48;;;7.13;;
80136;SDS011;69466;55.948;37.484;2023-09-18T00:25:38;11.68;;;7.18;;
80136;SDS011;69466;55.948;37.484;2023-09-18T00:28:06;11.52;;;6.63;;
80136;SDS011;69466;55.948;37.484;2023-09-18T00:30:33;11.68;;;7.13;;
80136;SDS011;69466;55.948;37.484;2023-09-18T00:33:00;11.60;;;6.53;;
80136;SDS011;69466;55.948;37.484;2023-09-18T00:35:26;13.93;;;7.35;;
80136;SDS011;69466;55.948;37.484;2023-09-18T00:37:53;12.10;;;7.35;;
80136;SDS011;69466;55.948;37.484;2023-09-18T00:40:20;12.02;;;7.45;;
80136;SDS011;69466;55.948;37.484;2023-09-18T00:42:46;10.25;;;7.05;;
80136;SDS011;69466;55.948;37.484;2023-09-18T00:45:13;11.85;;;7.53;;
80136;SDS011;69466;55.948;37.484;2023-09-18T00:47:40;11.95;;;7.28;;
80136;SDS011;69466;55.948;37.484;2023-09-18T00:50:07;10.68;;;7.15;;
80136;SDS011;69466;55.948;37.484;2023-09-18T00:52:37;14.77;;;7.50;;
80136;SDS011;69466;55.948;37.484;2023-09-18T00:55:04;11.35;;;7.35;;
80136;SDS011;69466;55.948;37.484;2023-09-18T00:57:34;11.20;;;6.82;;
80136;SDS011;69466;55.948;37.484;2023-09-18T01:00:02;10.52;;;6.75;;
80136;SDS011;69466;55.948;37.484;2023-09-18T01:02:32;11.45;;;7.32;;
80136;SDS011;69466;55.948;37.484;2023-09-18T01:04:59;10.25;;;6.65;;
80136;SDS011;69466;55.948;37.484;2023-09-18T01:07:25;13.23;;;7.00;;
80136;SDS011;69466;55.948;37.484;2023-09-18T01:09:51;11.07;;;7.13;;
80136;SDS011;69466;55.948;37.484;2023-09-18T01:12:20;11.02;;;6.38;;
80136;SDS011;69466;55.948;37.484;2023-09-18T01:17:56;11.25;;;6.70;;
80136;SDS011;69466;55.948;37.484;2023-09-18T01:20:22;10.57;;;6.50;;
80136;SDS011;69466;55.948;37.484;2023-09-18T01:22:48;11.00;;;6.85;;
80136;SDS011;69466;55.948;37.484;2023-09-18T01:25:15;14.88;;;7.57;;
80136;SDS011;69466;55.948;37.484;2023-09-18T01:27:42;10.75;;;6.65;;
80136;SDS011;69466;55.948;37.484;2023-09-18T01:30:08;14.00;;;7.15;;
80136;SDS011;69466;55.948;37.484;2023-09-18T01:32:35;12.07;;;8.60;;
80136;SDS011;69466;55.948;37.484;2023-09-18T01:35:03;9.60;;;6.47;;
80136;SDS011;69466;55.948;37.484;2023-09-18T01:37:33;10.50;;;6.47;;
80136;SDS011;69466;55.948;37.484;2023-09-18T01:40:01;10.90;;;6.80;;
80136;SDS011;69466;55.948;37.484;2023-09-18T01:42:33;11.15;;;7.00;;
80136;SDS011;69466;55.948;37.484;2023-09-18T01:45:01;10.77;;;6.93;;
80136;SDS011;69466;55.948;37.484;2023-09-18T01:47:32;11.07;;;6.57;;
80136;SDS011;69466;55.948;37.484;2023-09-18T01:49:59;10.23;;;6.43;;
80136;SDS011;69466;55.948;37.484;2023-09-18T01:52:31;10.38;;;6.30;;
80136;SDS011;69466;55.948;37.484;2023-09-18T01:54:57;11.95;;;6.07;;
80136;SDS011;69466;55.948;37.484;2023-09-18T01:57:23;8.55;;;5.47;;
80136;SDS011;69466;55.948;37.484;2023-09-18T01:59:50;11.48;;;6.75;;
80136;SDS011;69466;55.948;37.484;2023-09-18T02:02:16;9.63;;;5.15;;
80136;SDS011;69466;55.948;37.484;2023-09-18T02:04:42;11.20;;;5.88;;
80136;SDS011;69466;55.948;37.484;2023-09-18T02:07:08;7.80;;;4.82;;
80136;SDS011;69466;55.948;37.484;2023-09-18T02:09:35;8.65;;;5.82;;
80136;SDS011;69466;55.948;37.484;2023-09-18T02:12:01;7.97;;;5.03;;
80136;SDS011;69466;55.948;37.484;2023-09-18T02:14:28;9.07;;;5.00;;
80136;SDS011;69466;55.948;37.484;2023-09-18T02:16:57;11.50;;;4.90;;
80136;SDS011;69466;55.948;37.484;2023-09-18T02:19:24;10.70;;;5.43;;
80136;SDS011;69466;55.948;37.484;2023-09-18T02:21:51;7.95;;;4.63;;
80136;SDS011;69466;55.948;37.484;2023-09-18T02:24:18;8.02;;;4.65;;
80136;SDS011;69466;55.948;37.484;2023-09-18T02:26:44;9.43;;;5.32;;
80136;SDS011;69466;55.948;37.484;2023-09-18T02:29:10;8.50;;;4.60;;
80136;SDS011;69466;55.948;37.484;2023-09-18T02:31:38;9.18;;;5.25;;
80136;SDS011;69466;55.948;37.484;2023-09-18T02:34:07;9.63;;;5.03;;
80136;SDS011;69466;55.948;37.484;2023-09-18T02:36:34;11.30;;;5.63;;
80136;SDS011;69466;55.948;37.484;2023-09-18T02:39:01;8.30;;;4.95;;
80136;SDS011;69466;55.948;37.484;2023-09-18T02:41:28;9.85;;;5.65;;
80136;SDS011;69466;55.948;37.484;2023-09-18T02:43:54;8.93;;;5.43;;
80136;SDS011;69466;55.948;37.484;2023-09-18T02:46:32;8.27;;;5.00;;
80136;SDS011;69466;55.948;37.484;2023-09-18T02:53:27;10.75;;;6.15;;
80136;SDS011;69466;55.948;37.484;2023-09-18T02:55:56;8.57;;;5.93;;
80136;SDS011;69466;55.948;37.484;2023-09-18T02:58:23;10.85;;;6.05;;
80136;SDS011;69466;55.948;37.484;2023-09-18T03:00:52;12.57;;;6.38;;
80136;SDS011;69466;55.948;37.484;2023-09-18T03:03:19;11.02;;;5.75;;
80136;SDS011;69466;55.948;37.484;2023-09-18T03:05:45;10.30;;;6.60;;
80136;SDS011;69466;55.948;37.484;2023-09-18T03:08:12;8.57;;;5.50;;
80136;SDS011;69466;55.948;37.484;2023-09-18T03:10:40;10.60;;;6.30;;
80136;SDS011;69466;55.948;37.484;2023-09-18T03:13:08;11.43;;;6.35;;
80136;SDS011;69466;55.948;37.484;2023-09-18T03:15:35;11.05;;;6.40;;
80136;SDS011;69466;55.948;37.484;2023-09-18T03:18:03;12.40;;;6.80;;
80136;SDS011;69466;55.948;37.484;2023-09-18T03:20:33;9.77;;;5.45;;
80136;SDS011;69466;55.948;37.484;2023-09-18T03:23:29;8.77;;;6.18;;
80136;SDS011;69466;55.948;37.484;2023-09-18T03:25:55;9.27;;;5.65;;
80136;SDS011;69466;55.948;37.484;2023-09-18T03:28:22;10.60;;;5.47;;
80136;SDS011;69466;55.948;37.484;2023-09-18T03:30:49;9.95;;;6.10;;
80136;SDS011;69466;55.948;37.484;2023-09-18T03:33:18;8.07;;;5.78;;
80136;SDS011;69466;55.948;37.484;2023-09-18T03:35:46;8.48;;;5.68;;
80136;SDS011;69466;55.948;37.484;2023-09-18T03:38:15;8.82;;;5.60;;
80136;SDS011;69466;55.948;37.484;2023-09-18T03:40:41;10.25;;;5.72;;
80136;SDS011;69466;55.948;37.484;2023-09-18T03:43:12;8.35;;;5.15;;
80136;SDS011;69466;55.948;37.484;2023-09-18T03:45:38;11.43;;;6.55;;
80136;SDS011;69466;55.948;37.484;2023-09-18T03:48:07;10.23;;;5.65;;
80136;SDS011;69466;55.948;37.484;2023-09-18T03:50:34;11.68;;;6.53;;
80136;SDS011;69466;55.948;37.484;2023-09-18T03:53:00;9.60;;;5.72;;
80136;SDS011;69466;55.948;37.484;2023-09-18T03:55:26;9.10;;;5.97;;
80136;SDS011;69466;55.948;37.484;2023-09-18T03:57:52;10.82;;;7.40;;
80136;SDS011;69466;55.948;37.484;2023-09-18T04:00:20;12.38;;;6.45;;
80136;SDS011;69466;55.948;37.484;2023-09-18T04:02:47;10.30;;;5.82;;
80136;SDS011;69466;55.948;37.484;2023-09-18T04:05:13;10.45;;;6.25;;
80136;SDS011;69466;55.948;37.484;2023-09-18T04:07:39;11.25;;;6.90;;
80136;SDS011;69466;55.948;37.484;2023-09-18T04:10:05;9.05;;;6.05;;
80136;SDS011;69466;55.948;37.484;2023-09-18T04:12:32;11.52;;;5.75;;
80136;SDS011;69466;55.948;37.484;2023-09-18T04:14:59;10.48;;;6.10;;
80136;SDS011;69466;55.948;37.484;2023-09-18T04:17:25;12.02;;;5.85;;
80136;SDS011;69466;55.948;37.484;2023-09-18T04:19:52;9.80;;;6.07;;
80136;SDS011;69466;55.948;37.484;2023-09-18T04:22:18;10.40;;;5.97;;
80136;SDS011;69466;55.948;37.484;2023-09-18T04:24:44;9.80;;;5.68;;
80136;SDS011;69466;55.948;37.484;2023-09-18T04:27:10;10.68;;;6.10;;
80136;SDS011;69466;55.948;37.484;2023-09-18T04:29:37;11.75;;;5.85;;
80136;SDS011;69466;55.948;37.484;2023-09-18T04:32:03;8.43;;;5.90;;
80136;SDS011;69466;55.948;37.484;2023-09-18T04:34:31;8.88;;;5.72;;
80136;SDS011;69466;55.948;37.484;2023-09-18T04:36:58;10.57;;;5.60;;
80136;SDS011;69466;55.948;37.484;2023-09-18T04:39:24;9.93;;;5.32;;
80136;SDS011;69466;55.948;37.484;2023-09-18T04:41:50;8.63;;;4.97;;
80136;SDS011;69466;55.948;37.484;2023-09-18T04:44:17;8.52;;;5.28;;
80136;SDS011;69466;55.948;37.484;2023-09-18T04:46:44;7.32;;;4.38;;
80136;SDS011;69466;55.948;37.484;2023-09-18T04:49:11;6.32;;;4.20;;
80136;SDS011;69466;55.948;37.484;2023-09-18T04:51:38;7.68;;;4.07;;
80136;SDS011;69466;55.948;37.484;2023-09-18T04:54:08;7.28;;;4.35;;
80136;SDS011;69466;55.948;37.484;2023-09-18T04:56:34;8.38;;;4.60;;
80136;SDS011;69466;55.948;37.484;2023-09-18T04:59:00;7.63;;;4.85;;
80136;SDS011;69466;55.948;37.484;2023-09-18T05:01:28;6.60;;;4.25;;
80136;SDS011;69466;55.948;37.484;2023-09-18T05:03:56;8.55;;;4.70;;
80136;SDS011;69466;55.948;37.484;2023-09-18T05:06:22;6.35;;;4.05;;
80136;SDS011;69466;55.948;37.484;2023-09-18T05:08:48;6.80;;;4.80;;
80136;SDS011;69466;55.948;37.484;2023-09-18T05:11:14;9.55;;;4.40;;
80136;SDS011;69466;55.948;37.484;2023-09-18T05:13:48;8.43;;;4.43;;
80136;SDS011;69466;55.948;37.484;2023-09-18T05:16:17;8.10;;;4.25;;
80136;SDS011;69466;55.948;37.484;2023-09-18T05:18:42;9.45;;;4.50;;
80136;SDS011;69466;55.948;37.484;2023-09-18T05:21:08;6.95;;;3.92;;
80136;SDS011;69466;55.948;37.484;2023-09-18T05:23:35;7.53;;;4.10;;
80136;SDS011;69466;55.948;37.484;2023-09-18T05:26:02;8.10;;;4.38;;
80136;SDS011;69466;55.948;37.484;2023-09-18T05:28:28;6.47;;;3.70;;
80136;SDS011;69466;55.948;37.484;2023-09-18T05:30:54;7.97;;;4.43;;
80136;SDS011;69466;55.948;37.484;2023-09-18T05:33:21;9.00;;;4.90;;
80136;SDS011;69466;55.948;37.484;2023-09-18T05:35:46;7.30;;;4.22;;
80136;SDS011;69466;55.948;37.484;2023-09-18T05:38:13;9.00;;;4.82;;
80136;SDS011;69466;55.948;37.484;2023-09-18T05:40:40;7.50;;;4.40;;
80136;SDS011;69466;55.948;37.484;2023-09-18T05:43:07;8.85;;;4.47;;
80136;SDS011;69466;55.948;37.484;2023-09-18T05:45:34;7.95;;;4.40;;
80136;SDS011;69466;55.948;37.484;2023-09-18T05:48:00;8.35;;;4.55;;
80136;SDS011;69466;55.948;37.484;2023-09-18T05:50:30;7.00;;;4.50;;
80136;SDS011;69466;55.948;37.484;2023-09-18T05:52:57;6.25;;;3.88;;
80136;SDS011;69466;55.948;37.484;2023-09-18T05:55:25;6.85;;;4.25;;
80136;SDS011;69466;55.948;37.484;2023-09-18T05:57:53;5.85;;;3.85;;
80136;SDS011;69466;55.948;37.484;2023-09-18T06:00:19;7.13;;;4.57;;
80136;SDS011;69466;55.948;37.484;2023-09-18T06:02:47;16.27;;;5.88;;
80136;SDS011;69466;55.948;37.484;2023-09-18T06:05:14;8.48;;;5.30;;
80136;SDS011;69466;55.948;37.484;2023-09-18T06:07:41;6.70;;;4.35;;
80136;SDS011;69466;55.948;37.484;2023-09-18T06:10:08;7.97;;;4.13;;
80136;SDS011;69466;55.948;37.484;2023-09-18T06:12:35;8.82;;;4.95;;
80136;SDS011;69466;55.948;37.484;2023-09-18T06:15:05;8.45;;;5.03;;
80136;SDS011;69466;55.948;37.484;2023-09-18T06:17:39;9.93;;;5.80;;
80136;SDS011;69466;55.948;37.484;2023-09-18T06:20:07;8.27;;;5.05;;
80136;SDS011;69466;55.948;37.484;2023-09-18T06:22:39;8.80;;;5.05;;
80136;SDS011;69466;55.948;37.484;2023-09-18T06:25:07;10.25;;;4.75;;
80136;SDS011;69466;55.948;37.484;2023-09-18T06:27:39;9.48;;;5.28;;
80136;SDS011;69466;55.948;37.484;2023-09-18T06:30:05;9.68;;;5.15;;
80136;SDS011;69466;55.948;37.484;2023-09-18T06:32:34;8.02;;;5.28;;
80136;SDS011;69466;55.948;37.484;2023-09-18T06:35:02;9.23;;;5.50;;
80136;SDS011;69466;55.948;37.484;2023-09-18T06:37:32;9.32;;;5.57;;
80136;SDS011;69466;55.948;37.484;2023-09-18T06:39:58;9.20;;;5.63;;
80136;SDS011;69466;55.948;37.484;2023-09-18T06:42:24;6.95;;;4.95;;
80136;SDS011;69466;55.948;37.484;2023-09-18T06:44:57;10.35;;;5.70;;
80136;SDS011;69466;55.948;37.484;2023-09-18T06:47:24;10.00;;;6.03;;
80136;SDS011;69466;55.948;37.484;2023-09-18T06:49:51;9.40;;;5.38;;
80136;SDS011;69466;55.948;37.484;2023-09-18T06:52:18;8.07;;;5.55;;
80136;SDS011;69466;55.948;37.484;2023-09-18T06:54:49;10.10;;;6.38;;
80136;SDS011;69466;55.948;37.484;2023-09-18T06:57:15;12.75;;;6.35;;
80136;SDS011;69466;55.948;37.484;2023-09-18T06:59:41;11.70;;;5.40;;
80136;SDS011;69466;55.948;37.484;2023-09-18T07:02:07;13.13;;;6.47;;
80136;SDS011;69466;55.948;37.484;2023-09-18T07:04:33;11.07;;;6.35;;
80136;SDS011;69466;55.948;37.484;2023-09-18T07:06:59;11.57;;;6.18;;
80136;SDS011;69466;55.948;37.484;2023-09-18T07:09:25;13.90;;;6.07;;
80136;SDS011;69466;55.948;37.484;2023-09-18T07:11:51;15.18;;;6.93;;
80136;SDS011;69466;55.948;37.484;2023-09-18T07:14:21;16.23;;;7.88;;
80136;SDS011;69466;55.948;37.484;2023-09-18T07:16:47;14.70;;;7.15;;
80136;SDS011;69466;55.948;37.484;2023-09-18T07:19:13;14.70;;;7.47;;
80136;SDS011;69466;55.948;37.484;2023-09-18T07:21:42;15.00;;;6.65;;
80136;SDS011;69466;55.948;37.484;2023-09-18T07:24:08;14.85;;;8.95;;
80136;SDS011;69466;55.948;37.484;2023-09-18T07:26:35;11.85;;;6.82;;
80136;SDS011;69466;55.948;37.484;2023-09-18T07:29:02;12.52;;;6.65;;
80136;SDS011;69466;55.948;37.484;2023-09-18T07:31:29;13.45;;;7.65;;
80136;SDS011;69466;55.948;37.484;2023-09-18T07:33:55;15.95;;;7.75;;
80136;SDS011;69466;55.948;37.484;2023-09-18T07:36:21;21.52;;;11.07;;
80136;SDS011;69466;55.948;37.484;2023-09-18T07:38:48;22.17;;;11.63;;
80136;SDS011;69466;55.948;37.484;2023-09-18T07:41:14;11.45;;;6.95;;
80136;SDS011;69466;55.948;37.484;2023-09-18T07:43:41;13.65;;;7.60;;
80136;SDS011;69466;55.948;37.484;2023-09-18T07:46:07;20.60;;;10.98;;
80136;SDS011;69466;55.948;37.484;2023-09-18T07:48:33;16.92;;;9.25;;
80136;SDS011;69466;55.948;37.484;2023-09-18T07:51:00;12.70;;;8.57;;
80136;SDS011;69466;55.948;37.484;2023-09-18T07:53:27;15.82;;;8.77;;
80136;SDS011;69466;55.948;37.484;2023-09-18T07:55:57;12.68;;;9.15;;
80136;SDS011;69466;55.948;37.484;2023-09-18T08:00:56;13.60;;;7.55;;
80136;SDS011;69466;55.948;37.484;2023-09-18T08:03:23;16.05;;;8.38;;
80136;SDS011;69466;55.948;37.484;2023-09-18T08:05:51;16.88;;;7.80;;
80136;SDS011;69466;55.948;37.484;2023-09-18T08:08:18;13.50;;;7.55;;
80136;SDS011;69466;55.948;37.484;2023-09-18T08:10:46;16.20;;;8.18;;
80136;SDS011;69466;55.948;37.484;2023-09-18T08:13:21;15.80;;;8.30;;
80136;SDS011;69466;55.948;37.484;2023-09-18T08:15:48;17.23;;;8.15;;
80136;SDS011;69466;55.948;37.484;2023-09-18T08:18:14;19.33;;;10.23;;
80136;SDS011;69466;55.948;37.484;2023-09-18T08:20:41;12.55;;;7.50;;
80136;SDS011;69466;55.948;37.484;2023-09-18T08:23:09;12.38;;;7.55;;
80136;SDS011;69466;55.948;37.484;2023-09-18T08:25:36;14.18;;;7.88;;
80136;SDS011;69466;55.948;37.484;2023-09-18T08:28:02;13.77;;;8.02;;
80136;SDS011;69466;55.948;37.484;2023-09-18T08:30:30;12.98;;;7.63;;
80136;SDS011;69466;55.948;37.484;2023-09-18T08:32:56;15.65;;;9.00;;
80136;SDS011;69466;55.948;37.484;2023-09-18T08:35:22;15.13;;;7.70;;
80136;SDS011;69466;55.948;37.484;2023-09-18T08:37:50;17.98;;;8.10;;
80136;SDS011;69466;55.948;37.484;2023-09-18T08:40:17;14.05;;;7.93;;
80136;SDS011;69466;55.948;37.484;2023-09-18T08:42:50;18.20;;;9.27;;
80136;SDS011;69466;55.948;37.484;2023-09-18T08:45:23;17.20;;;8.07;;
80136;SDS011;69466;55.948;37.484;2023-09-18T08:47:56;17.30;;;8.63;;
80136;SDS011;69466;55.948;37.484;2023-09-18T08:50:24;11.88;;;6.70;;
80136;SDS011;69466;55.948;37.484;2023-09-18T08:52:51;14.60;;;8.13;;
80136;SDS011;69466;55.948;37.484;2023-09-18T08:55:19;9.95;;;6.40;;
80136;SDS011;69466;55.948;37.484;2023-09-18T08:57:46;13.98;;;6.20;;
80136;SDS011;69466;55.948;37.484;2023-09-18T09:00:13;12.70;;;7.15;;
80136;SDS011;69466;55.948;37.484;2023-09-18T09:02:45;10.35;;;6.90;;
80136;SDS011;69466;55.948;37.484;2023-09-18T09:05:16;11.23;;;7.03;;
80136;SDS011;69466;55.948;37.484;2023-09-18T09:07:42;9.23;;;6.70;;
80136;SDS011;69466;55.948;37.484;2023-09-18T09:10:08;11.00;;;7.93;;
80136;SDS011;69466;55.948;37.484;2023-09-18T09:12:47;10.75;;;7.30;;
80136;SDS011;69466;55.948;37.484;2023-09-18T09:15:25;16.88;;;7.82;;
80136;SDS011;69466;55.948;37.484;2023-09-18T09:18:04;11.57;;;7.97;;
80136;SDS011;69466;55.948;37.484;2023-09-18T09:20:33;13.20;;;7.43;;
80136;SDS011;69466;55.948;37.484;2023-09-18T09:23:02;10.15;;;6.55;;
80136;SDS011;69466;55.948;37.484;2023-09-18T09:25:30;9.35;;;6.40;;
80136;SDS011;69466;55.948;37.484;2023-09-18T09:27:57;9.32;;;6.30;;
80136;SDS011;69466;55.948;37.484;2023-09-18T09:32:56;11.23;;;7.00;;
80136;SDS011;69466;55.948;37.484;2023-09-18T09:35:24;10.95;;;6.90;;
80136;SDS011;69466;55.948;37.484;2023-09-18T09:38:00;8.80;;;5.90;;
80136;SDS011;69466;55.948;37.484;2023-09-18T09:40:33;8.45;;;5.45;;
80136;SDS011;69466;55.948;37.484;2023-09-18T09:43:00;9.75;;;6.05;;
80136;SDS011;69466;55.948;37.484;2023-09-18T09:45:31;10.27;;;6.93;;
80136;SDS011;69466;55.948;37.484;2023-09-18T09:48:04;10.25;;;5.90;;
80136;SDS011;69466;55.948;37.484;2023-09-18T09:50:33;10.45;;;5.93;;
80136;SDS011;69466;55.948;37.484;2023-09-18T09:53:12;9.90;;;6.60;;
80136;SDS011;69466;55.948;37.484;2023-09-18T09:55:39;10.68;;;7.47;;
80136;SDS011;69466;55.948;37.484;2023-09-18T09:58:07;10.15;;;6.38;;
80136;SDS011;69466;55.948;37.484;2023-09-18T10:00:54;11.98;;;7.10;;
80136;SDS011;69466;55.948;37.484;2023-09-18T10:03:26;7.65;;;5.60;;
80136;SDS011;69466;55.948;37.484;2023-09-18T10:05:53;10.73;;;6.40;;
80136;SDS011;69466;55.948;37.484;2023-09-18T10:08:25;10.73;;;6.13;;
80136;SDS011;69466;55.948;37.484;2023-09-18T10:10:53;10.88;;;7.30;;
80136;SDS011;69466;55.948;37.484;2023-09-18T10:15:51;10.55;;;7.43;;
80136;SDS011;69466;55.948;37.484;2023-09-18T10:18:28;10.77;;;7.45;;
80136;SDS011;69466;55.948;37.484;2023-09-18T10:21:32;12.13;;;7.50;;
80136;SDS011;69466;55.948;37.484;2023-09-18T10:26:47;11.52;;;8.10;;
80136;SDS011;69466;55.948;37.484;2023-09-18T10:29:19;12.43;;;7.68;;
80136;SDS011;69466;55.948;37.484;2023-09-18T10:31:48;10.60;;;7.32;;
80136;SDS011;69466;55.948;37.484;2023-09-18T10:34:16;12.32;;;7.82;;
80136;SDS011;69466;55.948;37.484;2023-09-18T10:36:44;11.63;;;7.53;;
80136;SDS011;69466;55.948;37.484;2023-09-18T10:39:12;11.48;;;8.65;;
80136;SDS011;69466;55.948;37.484;2023-09-18T10:41:54;12.55;;;7.63;;
80136;SDS011;69466;55.948;37.484;2023-09-18T10:44:24;10.77;;;7.78;;
80136;SDS011;69466;55.948;37.484;2023-09-18T10:46:55;12.38;;;8.40;;
80136;SDS011;69466;55.948;37.484;2023-09-18T10:49:22;13.30;;;8.20;;
80136;SDS011;69466;55.948;37.484;2023-09-18T10:51:48;15.63;;;8.88;;
80136;SDS011;69466;55.948;37.484;2023-09-18T10:54:23;13.65;;;9.25;;
80136;SDS011;69466;55.948;37.484;2023-09-18T10:56:50;10.82;;;8.35;;
80136;SDS011;69466;55.948;37.484;2023-09-18T10:59:17;12.48;;;8.55;;
80136;SDS011;69466;55.948;37.484;2023-09-18T11:01:44;14.10;;;8.63;;
80136;SDS011;69466;55.948;37.484;2023-09-18T11:04:12;11.90;;;7.80;;
80136;SDS011;69466;55.948;37.484;2023-09-18T11:09:24;13.02;;;8.20;;
80136;SDS011;69466;55.948;37.484;2023-09-18T11:25:29;11.40;;;7.30;;
80136;SDS011;69466;55.948;37.484;2023-09-18T11:28:12;14.50;;;7.47;;
80136;SDS011;69466;55.948;37.484;2023-09-18T11:30:50;11.52;;;7.13;;
80136;SDS011;69466;55.948;37.484;2023-09-18T11:33:32;10.63;;;7.38;;
80136;SDS011;69466;55.948;37.484;2023-09-18T11:36:04;9.60;;;6.05;;
80136;SDS011;69466;55.948;37.484;2023-09-18T11:38:35;10.10;;;5.93;;
80136;SDS011;69466;55.948;37.484;2023-09-18T11:41:23;8.93;;;6.60;;
80136;SDS011;69466;55.948;37.484;2023-09-18T11:43:51;10.98;;;6.57;;
80136;SDS011;69466;55.948;37.484;2023-09-18T11:46:19;12.70;;;6.40;;
80136;SDS011;69466;55.948;37.484;2023-09-18T11:51:23;10.65;;;6.28;;
80136;SDS011;69466;55.948;37.484;2023-09-18T11:53:51;9.40;;;5.90;;
80136;SDS011;69466;55.948;37.484;2023-09-18T11:56:21;12.07;;;6.07;;
80136;SDS011;69466;55.948;37.484;2023-09-18T11:58:50;10.00;;;6.07;;
80136;SDS011;69466;55.948;37.484;2023-09-18T12:01:20;15.23;;;6.30;;
80136;SDS011;69466;55.948;37.484;2023-09-18T12:03:54;9.90;;;5.97;;
80136;SDS011;69466;55.948;37.484;2023-09-18T12:06:21;11.98;;;6.53;;
80136;SDS011;69466;55.948;37.484;2023-09-18T12:08:48;9.70;;;5.85;;
80136;SDS011;69466;55.948;37.484;2023-09-18T12:11:18;9.30;;;6.15;;
80136;SDS011;69466;55.948;37.484;2023-09-18T12:13:46;9.45;;;5.95;;
80136;SDS011;69466;55.948;37.484;2023-09-18T12:16:13;9.13;;;5.07;;
80136;SDS011;69466;55.948;37.484;2023-09-18T12:18:44;9.82;;;4.97;;
80136;SDS011;69466;55.948;37.484;2023-09-18T12:21:13;14.25;;;5.57;;
80136;SDS011;69466;55.948;37.484;2023-09-18T12:23:42;11.05;;;4.82;;
80136;SDS011;69466;55.948;37.484;2023-09-18T12:26:12;14.38;;;7.80;;
80136;SDS011;69466;55.948;37.484;2023-09-18T12:28:43;10.30;;;4.78;;
80136;SDS011;69466;55.948;37.484;2023-09-18T12:31:14;8.82;;;4.38;;
80136;SDS011;69466;55.948;37.484;2023-09-18T12:33:42;10.93;;;5.18;;
80136;SDS011;69466;55.948;37.484;2023-09-18T12:36:19;8.10;;;4.00;;
80136;SDS011;69466;55.948;37.484;2023-09-18T12:38:59;7.75;;;4.53;;
80136;SDS011;69466;55.948;37.484;2023-09-18T12:41:29;8.07;;;5.22;;
80136;SDS011;69466;55.948;37.484;2023-09-18T12:43:57;6.97;;;4.38;;
80136;SDS011;69466;55.948;37.484;2023-09-18T12:46:24;8.50;;;4.95;;
80136;SDS011;69466;55.948;37.484;2023-09-18T12:48:50;11.23;;;4.65;;
80136;SDS011;69466;55.948;37.484;2023-09-18T12:51:17;11.73;;;5.88;;
80136;SDS011;69466;55.948;37.484;2023-09-18T12:53:48;9.80;;;4.63;;
80136;SDS011;69466;55.948;37.484;2023-09-18T12:56:25;10.45;;;5.18;;
80136;SDS011;69466;55.948;37.484;2023-09-18T12:58:51;12.70;;;6.95;;
80136;SDS011;69466;55.948;37.484;2023-09-18T13:01:17;11.98;;;5.72;;
80136;SDS011;69466;55.948;37.484;2023-09-18T13:03:44;11.75;;;4.97;;
80136;SDS011;69466;55.948;37.484;2023-09-18T13:06:17;11.50;;;5.38;;
80136;SDS011;69466;55.948;37.484;2023-09-18T13:08:44;8.60;;;5.65;;
80136;SDS011;69466;55.948;37.484;2023-09-18T13:11:11;11.10;;;5.57;;
80136;SDS011;69466;55.948;37.484;2023-09-18T13:13:40;8.63;;;4.88;;
80136;SDS011;69466;55.948;37.484;2023-09-18T13:16:07;9.07;;;4.65;;
80136;SDS011;69466;55.948;37.484;2023-09-18T13:18:37;6.10;;;3.95;;
80136;SDS011;69466;55.948;37.484;2023-09-18T13:21:12;7.50;;;4.68;;
80136;SDS011;69466;55.948;37.484;2023-09-18T13:23:40;7.03;;;4.55;;
80136;SDS011;69466;55.948;37.484;2023-09-18T13:26:07;6.85;;;4.95;;
80136;SDS011;69466;55.948;37.484;2023-09-18T13:28:34;9.75;;;4.55;;
80136;SDS011;69466;55.948;37.484;2023-09-18T13:31:05;10.18;;;5.25;;
80136;SDS011;69466;55.948;37.484;2023-09-18T13:33:38;8.50;;;5.70;;
80136;SDS011;69466;55.948;37.484;2023-09-18T13:36:05;9.90;;;5.70;;
80136;SDS011;69466;55.948;37.484;2023-09-18T13:38:32;10.52;;;5.85;;
80136;SDS011;69466;55.948;37.484;2023-09-18T13:40:58;9.20;;;5.88;;
80136;SDS011;69466;55.948;37.484;2023-09-18T13:43:24;7.78;;;5.45;;
80136;SDS011;69466;55.948;37.484;2023-09-18T13:45:50;7.78;;;5.30;;
80136;SDS011;69466;55.948;37.484;2023-09-18T13:48:22;8.77;;;5.20;;
80136;SDS011;69466;55.948;37.484;2023-09-18T13:50:52;7.47;;;4.72;;
80136;SDS011;69466;55.948;37.484;2023-09-18T13:53:18;7.43;;;4.85;;
80136;SDS011;69466;55.948;37.484;2023-09-18T13:55:45;8.25;;;4.88;;
80136;SDS011;69466;55.948;37.484;2023-09-18T13:58:11;7.43;;;5.10;;
80136;SDS011;69466;55.948;37.484;2023-09-18T14:00:37;7.45;;;4.68;;
80136;SDS011;69466;55.948;37.484;2023-09-18T14:03:04;8.50;;;4.93;;
80136;SDS011;69466;55.948;37.484;2023-09-18T14:05:31;8.00;;;4.63;;
80136;SDS011;69466;55.948;37.484;2023-09-18T14:08:00;7.60;;;5.28;;
80136;SDS011;69466;55.948;37.484;2023-09-18T14:10:29;10.18;;;6.18;;
80136;SDS011;69466;55.948;37.484;2023-09-18T14:12:55;8.80;;;5.78;;
80136;SDS011;69466;55.948;37.484;2023-09-18T14:15:23;8.35;;;5.13;;
80136;SDS011;69466;55.948;37.484;2023-09-18T14:17:49;7.63;;;5.00;;
80136;SDS011;69466;55.948;37.484;2023-09-18T14:20:15;7.38;;;5.10;;
80136;SDS011;69466;55.948;37.484;2023-09-18T14:22:44;6.53;;;4.50;;
80136;SDS011;69466;55.948;37.484;2023-09-18T14:25:11;7.30;;;4.22;;
80136;SDS011;69466;55.948;37.484;2023-09-18T14:27:37;6.68;;;4.30;;
80136;SDS011;69466;55.948;37.484;2023-09-18T14:30:05;6.28;;;4.15;;
80136;SDS011;69466;55.948;37.484;2023-09-18T14:32:34;11.02;;;5.38;;
80136;SDS011;69466;55.948;37.484;2023-09-18T14:35:03;7.55;;;4.43;;
80136;SDS011;69466;55.948;37.484;2023-09-18T14:37:31;8.00;;;5.03;;
80136;SDS011;69466;55.948;37.484;2023-09-18T14:39:58;7.55;;;4.85;;
80136;SDS011;69466;55.948;37.484;2023-09-18T14:42:26;6.32;;;4.00;;
80136;SDS011;69466;55.948;37.484;2023-09-18T14:44:51;8.32;;;5.25;;
80136;SDS011;69466;55.948;37.484;2023-09-18T14:47:18;6.55;;;4.40;;
80136;SDS011;69466;55.948;37.484;2023-09-18T14:49:44;5.50;;;3.97;;
80136;SDS011;69466;55.948;37.484;2023-09-18T14:52:14;8.13;;;5.55;;
80136;SDS011;69466;55.948;37.484;2023-09-18T14:54:46;9.60;;;4.90;;
80136;SDS011;69466;55.948;37.484;2023-09-18T14:57:12;10.38;;;4.15;;
80136;SDS011;69466;55.948;37.484;2023-09-18T14:59:41;7.75;;;4.93;;
80136;SDS011;69466;55.948;37.484;2023-09-18T15:02:15;7.50;;;4.82;;
80136;SDS011;69466;55.948;37.484;2023-09-18T15:04:49;8.77;;;5.18;;
80136;SDS011;69466;55.948;37.484;2023-09-18T15:07:15;8.20;;;5.20;;
80136;SDS011;69466;55.948;37.484;2023-09-18T15:09:44;9.23;;;4.47;;